Time;durP1;ratioP1;P1;durP2;ratioP2;P2;SDS_P1;SDS_P2;PMS_P1;PMS_P2;Temp;Humidity;BMP_temperature;BMP_pressure;BME280_temperature;BME280_humidity;BME280_pressure;Samples;Min_cycle;Max_cycle;Signal;HPM_P1;HPM_P2
2023/06/04 00:00:36;;;;;;;17.38;7.00;;;;;;;;;;5012292;28;20048;-46
2023/06/04 00:03:04;;;;;;;16.38;7.00;;;;;;;;;;5012311;28;20274;-45
2023/06/04 00:05:32;;;;;;;21.45;7.10;;;;;;;;;;4995473;28;20519;-46
2023/06/04 00:08:01;;;;;;;22.30;8.00;;;;;;;;;;5011315;28;20488;-44
2023/06/04 00:10:32;;;;;;;16.80;7.85;;;;;;;;;;4998367;28;20770;-46
2023/06/04 00:13:00;;;;;;;20.90;7.72;;;;;;;;;;5019200;28;20350;-44
2023/06/04 00:15:28;;;;;;;25.98;7.70;;;;;;;;;;5015202;28;20099;-45
2023/06/04 00:17:56;;;;;;;23.20;8.65;;;;;;;;;;5010031;28;20048;-45
2023/06/04 00:20:24;;;;;;;25.47;8.57;;;;;;;;;;5014423;28;20045;-44
2023/06/04 00:22:52;;;;;;;22.27;7.95;;;;;;;;;;5029303;28;20051;-44
2023/06/04 00:25:21;;;;;;;20.23;7.72;;;;;;;;;;5027616;28;20831;-44
2023/06/04 00:27:48;;;;;;;25.92;7.88;;;;;;;;;;5031836;28;20053;-45
2023/06/04 00:30:16;;;;;;;24.17;7.93;;;;;;;;;;4989228;28;20037;-44
2023/06/04 00:32:48;;;;;;;25.37;7.90;;;;;;;;;;5018558;28;20411;-43
2023/06/04 00:35:16;;;;;;;20.95;8.13;;;;;;;;;;5020835;28;20124;-45
2023/06/04 00:37:43;;;;;;;24.20;8.85;;;;;;;;;;5033755;28;20538;-44
2023/06/04 00:40:11;;;;;;;19.73;7.45;;;;;;;;;;5008360;28;20661;-44
2023/06/04 00:42:41;;;;;;;20.02;6.93;;;;;;;;;;5019968;28;20121;-44
2023/06/04 00:45:09;;;;;;;18.37;7.00;;;;;;;;;;5001206;28;20045;-44
2023/06/04 00:47:37;;;;;;;19.67;6.90;;;;;;;;;;5002642;28;20038;-44
2023/06/04 00:50:06;;;;;;;19.88;7.05;;;;;;;;;;5000993;28;20132;-45
2023/06/04 00:52:35;;;;;;;21.63;6.53;;;;;;;;;;5026661;28;20503;-48
2023/06/04 00:55:07;;;;;;;24.02;7.38;;;;;;;;;;5018442;28;20062;-46
2023/06/04 00:57:35;;;;;;;20.43;7.37;;;;;;;;;;5013417;28;20124;-46
2023/06/04 01:00:06;;;;;;;15.57;5.88;;;;;;;;;;5016846;28;20044;-43
2023/06/04 01:02:35;;;;;;;16.17;6.50;;;;;;;;;;4994443;28;20061;-45
2023/06/04 01:05:16;;;;;;;18.55;6.00;;;;;;;;;;5006518;28;20080;-44
2023/06/04 01:07:46;;;;;;;20.45;6.40;;;;;;;;;;5014791;28;20049;-45
2023/06/04 01:10:14;;;;;;;22.77;6.47;;;;;;;;;;5023007;28;20033;-46
2023/06/04 01:12:42;;;;;;;21.35;5.72;;;;;;;;;;5011034;28;20045;-47
2023/06/04 01:15:12;;;;;;;24.77;6.78;;;;;;;;;;5019790;28;20136;-45
2023/06/04 01:17:41;;;;;;;18.67;5.40;;;;;;;;;;5016359;28;20212;-44
2023/06/04 01:20:32;;;;;;;16.67;4.85;;;;;;;;;;5013675;28;20072;-46
2023/06/04 01:23:13;;;;;;;19.93;5.73;;;;;;;;;;4987635;28;20337;-44
2023/06/04 01:25:43;;;;;;;15.90;4.75;;;;;;;;;;5025908;28;20037;-44
2023/06/04 01:28:15;;;;;;;12.38;4.65;;;;;;;;;;5024435;28;20779;-46
2023/06/04 01:30:47;;;;;;;17.55;5.05;;;;;;;;;;5006555;28;20099;-44
2023/06/04 01:33:15;;;;;;;18.17;5.13;;;;;;;;;;4985172;28;20723;-47
2023/06/04 01:35:43;;;;;;;17.30;5.50;;;;;;;;;;4977995;28;20036;-46
2023/06/04 01:38:11;;;;;;;15.68;5.05;;;;;;;;;;5025655;28;20114;-45
2023/06/04 01:40:40;;;;;;;21.80;5.30;;;;;;;;;;5026255;28;20139;-46
2023/06/04 01:43:08;;;;;;;16.27;5.40;;;;;;;;;;5026583;28;20131;-45
2023/06/04 01:45:36;;;;;;;20.45;4.43;;;;;;;;;;5023278;28;20060;-45
2023/06/04 01:48:06;;;;;;;15.03;4.33;;;;;;;;;;5004458;28;20056;-44
2023/06/04 01:50:34;;;;;;;16.25;5.10;;;;;;;;;;5020217;28;20033;-44
2023/06/04 01:53:02;;;;;;;16.10;4.88;;;;;;;;;;5022469;28;20586;-47
2023/06/04 01:55:33;;;;;;;18.48;5.55;;;;;;;;;;5034011;28;20492;-43
2023/06/04 01:58:01;;;;;;;16.08;4.80;;;;;;;;;;5017543;28;20037;-44
2023/06/04 02:00:31;;;;;;;14.83;4.70;;;;;;;;;;5020017;28;20128;-47
2023/06/04 02:02:59;;;;;;;16.95;4.43;;;;;;;;;;5031922;28;20033;-43
2023/06/04 02:05:29;;;;;;;24.00;5.68;;;;;;;;;;5014260;28;20057;-44
2023/06/04 02:08:01;;;;;;;13.82;4.07;;;;;;;;;;5031549;28;20063;-44
2023/06/04 02:10:29;;;;;;;13.82;4.03;;;;;;;;;;5021097;28;20648;-45
2023/06/04 02:12:58;;;;;;;14.83;4.47;;;;;;;;;;5031539;28;20552;-46
2023/06/04 02:15:27;;;;;;;17.40;4.82;;;;;;;;;;5009228;28;20044;-45
2023/06/04 02:17:58;;;;;;;14.13;3.80;;;;;;;;;;5018370;28;20064;-43
2023/06/04 02:20:25;;;;;;;14.70;4.18;;;;;;;;;;5003604;28;20033;-43
2023/06/04 02:22:57;;;;;;;15.70;4.68;;;;;;;;;;5025113;28;20050;-45
2023/06/04 02:25:25;;;;;;;14.40;3.90;;;;;;;;;;5019272;28;20541;-45
2023/06/04 02:27:53;;;;;;;17.85;4.25;;;;;;;;;;5016380;28;20147;-44
2023/06/04 02:30:20;;;;;;;14.70;4.63;;;;;;;;;;5009043;28;20051;-44
2023/06/04 02:32:50;;;;;;;18.27;4.38;;;;;;;;;;5018447;28;20135;-47
2023/06/04 02:35:20;;;;;;;14.63;4.20;;;;;;;;;;5021888;28;20376;-46
2023/06/04 02:37:51;;;;;;;15.07;4.53;;;;;;;;;;5020704;28;20134;-45
2023/06/04 02:40:20;;;;;;;13.38;4.15;;;;;;;;;;5006962;28;20033;-44
2023/06/04 02:42:50;;;;;;;18.38;4.90;;;;;;;;;;5020596;28;20972;-46
2023/06/04 02:45:17;;;;;;;20.90;5.05;;;;;;;;;;5023711;28;20041;-43
2023/06/04 02:47:45;;;;;;;13.75;4.85;;;;;;;;;;5015422;28;20511;-43
2023/06/04 02:50:14;;;;;;;14.27;4.70;;;;;;;;;;5010281;28;20041;-43
2023/06/04 02:52:43;;;;;;;15.82;5.03;;;;;;;;;;5019145;28;20048;-45
2023/06/04 02:55:12;;;;;;;14.18;5.30;;;;;;;;;;5018808;28;20128;-43
2023/06/04 02:57:42;;;;;;;19.83;4.95;;;;;;;;;;5028103;28;20047;-44
2023/06/04 03:00:12;;;;;;;21.23;5.05;;;;;;;;;;5001279;28;20523;-47
2023/06/04 03:02:42;;;;;;;17.97;6.00;;;;;;;;;;5025356;28;20045;-45
2023/06/04 03:05:12;;;;;;;19.30;5.88;;;;;;;;;;5013176;28;20048;-47
2023/06/04 03:07:45;;;;;;;19.17;5.82;;;;;;;;;;5016088;28;20056;-44
2023/06/04 03:10:15;;;;;;;14.02;5.75;;;;;;;;;;5015085;28;20034;-46
2023/06/04 03:12:45;;;;;;;21.77;5.90;;;;;;;;;;5027015;28;20048;-43
2023/06/04 03:15:12;;;;;;;19.97;5.87;;;;;;;;;;5021707;28;20052;-45
2023/06/04 03:17:41;;;;;;;16.90;6.25;;;;;;;;;;5017111;28;20063;-44
2023/06/04 03:20:09;;;;;;;13.52;4.85;;;;;;;;;;5016958;28;20037;-44
2023/06/04 03:22:37;;;;;;;13.95;4.88;;;;;;;;;;5021255;28;20037;-43
2023/06/04 03:25:05;;;;;;;15.93;5.25;;;;;;;;;;4983979;28;21119;-45
2023/06/04 03:27:33;;;;;;;16.17;4.90;;;;;;;;;;5023803;28;20491;-44
2023/06/04 03:30:03;;;;;;;15.98;5.10;;;;;;;;;;5014406;28;20046;-44
2023/06/04 03:32:30;;;;;;;14.30;4.75;;;;;;;;;;5018165;28;20033;-45
2023/06/04 03:34:58;;;;;;;15.93;5.25;;;;;;;;;;5023155;28;20107;-45
2023/06/04 03:37:26;;;;;;;16.50;5.20;;;;;;;;;;5016396;28;20467;-45
2023/06/04 03:39:54;;;;;;;16.57;5.37;;;;;;;;;;5024901;28;20239;-44
2023/06/04 03:42:22;;;;;;;17.73;5.80;;;;;;;;;;5018341;28;20037;-43
2023/06/04 03:44:49;;;;;;;14.77;5.90;;;;;;;;;;5009804;28;20389;-44
2023/06/04 03:47:19;;;;;;;15.15;5.10;;;;;;;;;;5016049;28;20041;-45
2023/06/04 03:49:47;;;;;;;14.98;5.65;;;;;;;;;;5016387;28;20745;-44
2023/06/04 03:52:15;;;;;;;15.47;5.63;;;;;;;;;;5022135;28;20034;-44
2023/06/04 03:54:42;;;;;;;15.15;5.38;;;;;;;;;;5012755;28;20037;-44
2023/06/04 03:57:10;;;;;;;18.92;5.95;;;;;;;;;;5015408;28;20595;-44
2023/06/04 03:59:38;;;;;;;15.82;5.50;;;;;;;;;;5007601;28;20045;-44
2023/06/04 04:02:07;;;;;;;17.67;5.82;;;;;;;;;;5012679;28;20048;-43
2023/06/04 04:04:37;;;;;;;16.03;5.30;;;;;;;;;;5018167;28;20044;-43
2023/06/04 04:07:05;;;;;;;13.23;5.25;;;;;;;;;;4998697;28;20404;-44
2023/06/04 04:09:32;;;;;;;16.65;5.50;;;;;;;;;;5019830;28;20041;-44
2023/06/04 04:12:00;;;;;;;13.30;5.55;;;;;;;;;;5011341;28;20370;-43
2023/06/04 04:14:28;;;;;;;16.02;5.38;;;;;;;;;;5018558;28;20124;-45
2023/06/04 04:16:56;;;;;;;14.37;5.27;;;;;;;;;;5012532;28;20060;-45
2023/06/04 04:19:24;;;;;;;14.77;5.25;;;;;;;;;;5021887;28;20484;-43
2023/06/04 04:21:53;;;;;;;13.57;5.00;;;;;;;;;;5006764;28;20045;-43
2023/06/04 04:24:24;;;;;;;14.60;5.30;;;;;;;;;;5023628;28;20053;-44
2023/06/04 04:26:53;;;;;;;13.77;5.10;;;;;;;;;;5005232;28;20033;-44
2023/06/04 04:29:22;;;;;;;11.73;4.67;;;;;;;;;;4997937;28;20086;-44
2023/06/04 04:31:50;;;;;;;13.20;5.28;;;;;;;;;;5011756;28;20033;-43
2023/06/04 04:34:21;;;;;;;13.02;5.40;;;;;;;;;;5013796;28;20056;-44
2023/06/04 04:36:51;;;;;;;14.85;5.20;;;;;;;;;;5007340;28;20513;-45
2023/06/04 04:39:24;;;;;;;16.67;5.43;;;;;;;;;;5014998;28;20495;-45
2023/06/04 04:41:51;;;;;;;17.33;5.13;;;;;;;;;;5018752;28;20541;-45
2023/06/04 04:44:19;;;;;;;12.40;5.35;;;;;;;;;;4997121;28;20043;-44
2023/06/04 04:46:48;;;;;;;15.32;5.25;;;;;;;;;;5018952;28;20047;-46
2023/06/04 04:49:16;;;;;;;17.02;5.00;;;;;;;;;;4986758;28;20049;-44
2023/06/04 04:51:44;;;;;;;15.68;5.00;;;;;;;;;;5018719;28;20049;-45
2023/06/04 04:54:13;;;;;;;13.73;4.87;;;;;;;;;;4987401;28;20048;-44
2023/06/04 04:56:42;;;;;;;17.95;4.90;;;;;;;;;;5026949;28;20214;-44
2023/06/04 04:59:10;;;;;;;18.58;5.53;;;;;;;;;;5003274;28;20053;-47
2023/06/04 05:01:38;;;;;;;13.40;4.95;;;;;;;;;;5018058;28;20056;-45
2023/06/04 05:04:06;;;;;;;14.98;4.90;;;;;;;;;;5014161;28;20536;-45
2023/06/04 05:06:36;;;;;;;16.63;5.37;;;;;;;;;;5026312;28;20075;-45
2023/06/04 05:09:04;;;;;;;23.40;5.22;;;;;;;;;;5008668;28;20143;-48
2023/06/04 05:11:32;;;;;;;13.45;4.63;;;;;;;;;;5019351;28;20044;-45
2023/06/04 05:14:01;;;;;;;20.45;5.18;;;;;;;;;;5018329;28;20131;-47
2023/06/04 05:16:29;;;;;;;13.88;4.53;;;;;;;;;;5028419;28;20112;-44
2023/06/04 05:18:57;;;;;;;14.60;4.90;;;;;;;;;;5015371;28;20052;-45
2023/06/04 05:21:28;;;;;;;17.45;4.85;;;;;;;;;;5013010;28;20040;-44
2023/06/04 05:23:56;;;;;;;15.32;4.90;;;;;;;;;;5012860;28;20029;-44
2023/06/04 05:26:25;;;;;;;13.55;4.60;;;;;;;;;;5013138;28;20033;-43
2023/06/04 05:28:53;;;;;;;16.33;4.82;;;;;;;;;;5025344;28;20041;-46
2023/06/04 05:31:27;;;;;;;12.37;4.30;;;;;;;;;;5020990;28;20032;-44
2023/06/04 05:33:55;;;;;;;13.60;4.60;;;;;;;;;;5009487;28;20773;-46
2023/06/04 05:36:23;;;;;;;15.07;4.97;;;;;;;;;;5012034;28;20056;-44
2023/06/04 05:38:56;;;;;;;15.40;4.55;;;;;;;;;;5006870;28;20576;-43
2023/06/04 05:41:25;;;;;;;18.08;4.65;;;;;;;;;;5024689;28;20033;-44
2023/06/04 05:43:53;;;;;;;15.67;5.00;;;;;;;;;;5029294;28;20511;-47
2023/06/04 05:46:21;;;;;;;10.32;4.18;;;;;;;;;;5015824;28;20051;-45
2023/06/04 05:48:51;;;;;;;11.82;4.55;;;;;;;;;;5021324;28;20136;-48
2023/06/04 05:51:19;;;;;;;14.10;4.18;;;;;;;;;;4989147;28;20059;-43
2023/06/04 05:53:47;;;;;;;14.98;4.68;;;;;;;;;;5022370;28;20047;-44
2023/06/04 05:56:16;;;;;;;15.30;4.60;;;;;;;;;;5015036;28;20037;-46
2023/06/04 05:58:44;;;;;;;14.98;4.65;;;;;;;;;;5014016;28;20045;-46
2023/06/04 06:01:12;;;;;;;17.48;5.25;;;;;;;;;;5002070;28;20039;-45
2023/06/04 06:03:40;;;;;;;13.18;4.78;;;;;;;;;;5015393;28;20041;-44
2023/06/04 06:06:13;;;;;;;11.63;4.20;;;;;;;;;;5028206;28;20550;-44
2023/06/04 06:08:41;;;;;;;13.07;4.17;;;;;;;;;;4993513;28;20032;-45
2023/06/04 06:11:09;;;;;;;15.27;4.53;;;;;;;;;;5025745;28;20045;-46
2023/06/04 06:13:38;;;;;;;13.57;4.03;;;;;;;;;;5010656;28;20060;-45
2023/06/04 06:16:06;;;;;;;12.30;3.90;;;;;;;;;;5026708;28;20072;-46
2023/06/04 06:18:34;;;;;;;15.38;4.07;;;;;;;;;;5013656;28;20353;-46
2023/06/04 06:21:02;;;;;;;12.73;3.93;;;;;;;;;;5020825;28;20065;-44
2023/06/04 06:23:31;;;;;;;12.90;4.28;;;;;;;;;;5013349;28;20049;-44
2023/06/04 06:26:01;;;;;;;12.27;3.92;;;;;;;;;;5019212;28;20056;-47
2023/06/04 06:28:29;;;;;;;16.88;4.53;;;;;;;;;;5020916;28;20045;-44
2023/06/04 06:30:57;;;;;;;10.95;4.07;;;;;;;;;;5016903;28;20407;-44
2023/06/04 06:33:24;;;;;;;12.17;4.10;;;;;;;;;;5007323;28;20037;-43
2023/06/04 06:35:52;;;;;;;14.27;4.13;;;;;;;;;;5008809;28;20106;-47
2023/06/04 06:38:24;;;;;;;17.55;4.43;;;;;;;;;;5014637;28;20446;-43
2023/06/04 06:40:53;;;;;;;16.85;4.22;;;;;;;;;;5019971;28;20112;-45
2023/06/04 06:43:21;;;;;;;15.15;4.18;;;;;;;;;;5015787;28;20361;-46
2023/06/04 06:45:49;;;;;;;12.83;3.57;;;;;;;;;;5012262;28;20080;-44
2023/06/04 06:48:17;;;;;;;13.90;3.92;;;;;;;;;;5004586;28;20033;-44
2023/06/04 06:50:44;;;;;;;14.60;4.55;;;;;;;;;;5013738;28;20059;-44
2023/06/04 06:53:12;;;;;;;14.25;4.05;;;;;;;;;;5012741;28;20049;-43
2023/06/04 06:55:43;;;;;;;14.95;4.78;;;;;;;;;;5006389;28;20041;-45
2023/06/04 06:58:12;;;;;;;10.30;4.03;;;;;;;;;;5015262;28;20042;-45
2023/06/04 07:00:40;;;;;;;18.77;4.55;;;;;;;;;;5008197;28;20044;-46
2023/06/04 07:03:08;;;;;;;12.27;4.55;;;;;;;;;;5019662;28;20042;-45
2023/06/04 07:05:36;;;;;;;11.15;3.38;;;;;;;;;;4983651;28;20494;-46
2023/06/04 07:08:04;;;;;;;13.50;3.85;;;;;;;;;;5011151;28;20048;-46
2023/06/04 07:10:31;;;;;;;10.90;3.57;;;;;;;;;;5019480;28;20045;-46
2023/06/04 07:13:00;;;;;;;11.95;3.60;;;;;;;;;;5019166;28;20137;-44
2023/06/04 07:15:29;;;;;;;13.60;3.85;;;;;;;;;;5017986;28;20563;-45
2023/06/04 07:17:56;;;;;;;17.17;4.07;;;;;;;;;;5023451;28;20056;-44
2023/06/04 07:20:24;;;;;;;10.68;3.58;;;;;;;;;;5008535;28;20495;-45
2023/06/04 07:22:52;;;;;;;10.73;3.50;;;;;;;;;;5016066;28;20482;-47
2023/06/04 07:25:21;;;;;;;10.70;3.33;;;;;;;;;;4987481;28;20399;-45
2023/06/04 07:27:50;;;;;;;9.45;3.17;;;;;;;;;;5013812;28;20067;-44
2023/06/04 07:30:19;;;;;;;12.27;3.05;;;;;;;;;;5006030;28;20612;-45
2023/06/04 07:32:49;;;;;;;7.50;3.10;;;;;;;;;;5003935;28;20392;-45
2023/06/04 07:35:17;;;;;;;10.03;3.10;;;;;;;;;;5000105;28;20045;-44
2023/06/04 07:37:47;;;;;;;11.55;3.63;;;;;;;;;;4999373;28;20040;-45
2023/06/04 07:40:15;;;;;;;12.27;3.17;;;;;;;;;;5017408;28;20037;-45
2023/06/04 07:42:43;;;;;;;11.35;2.97;;;;;;;;;;5016720;28;20116;-46
2023/06/04 07:45:11;;;;;;;11.13;2.65;;;;;;;;;;5012205;28;20045;-44
2023/06/04 07:47:39;;;;;;;15.17;3.03;;;;;;;;;;5014020;28;20045;-44
2023/06/04 07:50:09;;;;;;;9.93;3.17;;;;;;;;;;5017414;28;20527;-46
2023/06/04 07:52:37;;;;;;;10.35;2.78;;;;;;;;;;5005736;28;20060;-44
2023/06/04 07:55:05;;;;;;;10.10;3.10;;;;;;;;;;5016048;28;20047;-45
2023/06/04 07:57:33;;;;;;;9.18;2.90;;;;;;;;;;5011276;28;20072;-44
2023/06/04 08:00:03;;;;;;;10.07;3.40;;;;;;;;;;4995076;28;20056;-45
2023/06/04 08:02:31;;;;;;;13.55;3.03;;;;;;;;;;5018042;28;20047;-45
2023/06/04 08:05:00;;;;;;;9.85;2.40;;;;;;;;;;5010063;28;20067;-46
2023/06/04 08:07:30;;;;;;;8.98;2.30;;;;;;;;;;5004331;28;20072;-44
2023/06/04 08:09:58;;;;;;;9.43;2.38;;;;;;;;;;5017941;28;20060;-46
2023/06/04 08:12:25;;;;;;;11.43;2.73;;;;;;;;;;5016997;28;20037;-44
2023/06/04 08:14:56;;;;;;;11.13;2.17;;;;;;;;;;5026697;28;20079;-46
2023/06/04 08:17:27;;;;;;;8.15;2.08;;;;;;;;;;5011937;28;20045;-44
2023/06/04 08:19:58;;;;;;;8.60;1.90;;;;;;;;;;4999697;28;20036;-45
2023/06/04 08:22:27;;;;;;;9.80;3.05;;;;;;;;;;5019326;28;20127;-47
2023/06/04 08:24:56;;;;;;;7.57;1.73;;;;;;;;;;5003799;28;20500;-46
2023/06/04 08:27:26;;;;;;;8.55;2.10;;;;;;;;;;5026082;28;20538;-50
2023/06/04 08:29:54;;;;;;;10.57;1.95;;;;;;;;;;5020682;28;20045;-45
2023/06/04 08:32:21;;;;;;;6.47;2.25;;;;;;;;;;4997466;28;20116;-45
2023/06/04 08:34:49;;;;;;;10.32;1.50;;;;;;;;;;5022522;28;20075;-46
2023/06/04 08:37:18;;;;;;;9.13;1.83;;;;;;;;;;5018506;28;20048;-45
2023/06/04 08:39:45;;;;;;;12.25;1.65;;;;;;;;;;5018668;28;20045;-44
2023/06/04 08:42:19;;;;;;;8.13;1.52;;;;;;;;;;5006158;28;20051;-44
2023/06/04 08:44:51;;;;;;;9.63;2.42;;;;;;;;;;5010424;28;20294;-45
2023/06/04 08:47:20;;;;;;;7.00;1.42;;;;;;;;;;5020660;28;20037;-45
2023/06/04 08:49:51;;;;;;;6.53;1.37;;;;;;;;;;5021700;28;20098;-44
2023/06/04 08:52:21;;;;;;;6.57;1.10;;;;;;;;;;4996834;28;20088;-44
2023/06/04 08:54:50;;;;;;;6.47;1.60;;;;;;;;;;5025901;28;20514;-45
2023/06/04 08:57:20;;;;;;;7.60;1.90;;;;;;;;;;5019471;28;20045;-45
2023/06/04 08:59:48;;;;;;;6.07;1.42;;;;;;;;;;5020038;28;20049;-44
2023/06/04 09:02:16;;;;;;;8.23;1.60;;;;;;;;;;5014902;28;20543;-45
2023/06/04 09:04:44;;;;;;;6.35;1.20;;;;;;;;;;5023331;28;20049;-44
2023/06/04 09:07:13;;;;;;;9.68;1.58;;;;;;;;;;5010022;28;20092;-47
2023/06/04 09:09:41;;;;;;;10.45;2.08;;;;;;;;;;5020997;28;20106;-44
2023/06/04 09:12:10;;;;;;;6.90;1.73;;;;;;;;;;4997467;28;20099;-44
2023/06/04 09:14:40;;;;;;;7.23;1.77;;;;;;;;;;5020938;28;20056;-44
2023/06/04 09:17:07;;;;;;;6.47;1.50;;;;;;;;;;5012348;28;20065;-44
2023/06/04 09:19:35;;;;;;;11.77;2.17;;;;;;;;;;5025685;28;20060;-45
2023/06/04 09:22:05;;;;;;;6.93;1.58;;;;;;;;;;5013385;28;20382;-44
2023/06/04 09:24:42;;;;;;;6.32;1.20;;;;;;;;;;5009062;28;20047;-44
2023/06/04 09:27:10;;;;;;;5.90;1.80;;;;;;;;;;5018283;28;20029;-47
2023/06/04 09:29:40;;;;;;;8.32;1.60;;;;;;;;;;5014820;28;20344;-51
2023/06/04 09:32:07;;;;;;;8.00;1.50;;;;;;;;;;5021396;28;20069;-46
2023/06/04 09:34:36;;;;;;;7.60;1.40;;;;;;;;;;5027397;28;20037;-46
2023/06/04 09:37:14;;;;;;;5.60;1.50;;;;;;;;;;5022499;28;20456;-45
2023/06/04 09:39:42;;;;;;;6.97;1.37;;;;;;;;;;5007237;28;20045;-48
2023/06/04 09:42:10;;;;;;;7.88;1.42;;;;;;;;;;5020959;28;20120;-47
2023/06/04 09:44:45;;;;;;;8.13;1.77;;;;;;;;;;5018368;28;20051;-44
2023/06/04 09:47:13;;;;;;;5.28;1.58;;;;;;;;;;5026272;28;20051;-47
2023/06/04 09:49:41;;;;;;;9.32;1.30;;;;;;;;;;4989670;28;20044;-47
2023/06/04 09:52:09;;;;;;;5.27;1.30;;;;;;;;;;5024902;28;20049;-47
2023/06/04 09:54:37;;;;;;;7.35;1.50;;;;;;;;;;5014313;28;20237;-46
2023/06/04 09:57:07;;;;;;;7.63;1.60;;;;;;;;;;5025142;28;20083;-48
2023/06/04 09:59:37;;;;;;;7.32;2.08;;;;;;;;;;5001483;28;20059;-45
2023/06/04 10:02:12;;;;;;;7.38;1.65;;;;;;;;;;5025683;28;20041;-44
2023/06/04 10:04:41;;;;;;;8.43;1.33;;;;;;;;;;5015270;28;20153;-46
2023/06/04 10:07:10;;;;;;;6.50;1.60;;;;;;;;;;5012827;28;20063;-45
2023/06/04 10:09:45;;;;;;;5.90;1.50;;;;;;;;;;5009372;28;20049;-45
2023/06/04 10:12:15;;;;;;;6.18;1.65;;;;;;;;;;5000088;28;20628;-46
2023/06/04 10:14:52;;;;;;;8.02;1.70;;;;;;;;;;5012302;28;20492;-47
2023/06/04 10:17:24;;;;;;;5.13;1.73;;;;;;;;;;5017238;28;20033;-45
2023/06/04 10:19:54;;;;;;;4.82;1.42;;;;;;;;;;5015384;28;20076;-47
2023/06/04 10:22:22;;;;;;;5.90;1.52;;;;;;;;;;4989420;28;20089;-46
2023/06/04 10:24:50;;;;;;;5.25;1.40;;;;;;;;;;5000719;28;20499;-45
2023/06/04 10:27:20;;;;;;;6.53;1.80;;;;;;;;;;5015661;28;20045;-46
2023/06/04 10:29:47;;;;;;;8.30;1.77;;;;;;;;;;5011973;28;20045;-48
2023/06/04 10:32:15;;;;;;;4.28;1.17;;;;;;;;;;5025761;28;20124;-45
2023/06/04 10:34:45;;;;;;;7.80;1.40;;;;;;;;;;5015095;28;20080;-45
2023/06/04 10:37:20;;;;;;;6.38;1.30;;;;;;;;;;5014940;28;20037;-46
2023/06/04 10:39:51;;;;;;;4.60;1.20;;;;;;;;;;5013064;28;20560;-44
2023/06/04 10:42:21;;;;;;;6.83;1.27;;;;;;;;;;5016092;28;20112;-46
2023/06/04 10:44:49;;;;;;;5.43;1.58;;;;;;;;;;5027560;28;20045;-44
2023/06/04 10:47:22;;;;;;;6.60;1.65;;;;;;;;;;4992089;28;20072;-48
2023/06/04 10:49:52;;;;;;;6.47;1.60;;;;;;;;;;5010640;28;20102;-48
2023/06/04 10:52:20;;;;;;;7.68;1.50;;;;;;;;;;5023599;28;20045;-46
2023/06/04 10:54:49;;;;;;;6.00;1.20;;;;;;;;;;5003408;28;20041;-45
2023/06/04 10:57:21;;;;;;;8.23;1.95;;;;;;;;;;5009383;28;20042;-45
2023/06/04 10:59:55;;;;;;;6.90;1.80;;;;;;;;;;5012465;28;20128;-45
2023/06/04 11:02:23;;;;;;;9.40;2.10;;;;;;;;;;5012319;28;20075;-45
2023/06/04 11:05:05;;;;;;;8.20;1.60;;;;;;;;;;5010797;28;20045;-45
2023/06/04 11:07:44;;;;;;;6.77;1.40;;;;;;;;;;5006497;28;20465;-44
2023/06/04 11:10:15;;;;;;;7.40;1.50;;;;;;;;;;5011691;28;20468;-45
2023/06/04 11:12:43;;;;;;;7.72;1.90;;;;;;;;;;5011020;28;20502;-47
2023/06/04 11:15:11;;;;;;;6.05;2.20;;;;;;;;;;5009117;28;20049;-46
2023/06/04 11:17:49;;;;;;;8.40;2.33;;;;;;;;;;5000828;28;20038;-46
2023/06/04 11:20:19;;;;;;;9.37;2.30;;;;;;;;;;5009957;28;20396;-44
2023/06/04 11:22:53;;;;;;;8.38;2.08;;;;;;;;;;5019457;28;20053;-45
2023/06/04 11:25:22;;;;;;;6.70;2.08;;;;;;;;;;5016392;28;20056;-44
2023/06/04 11:27:51;;;;;;;10.25;2.40;;;;;;;;;;5011733;28;20083;-45
2023/06/04 11:30:18;;;;;;;5.50;2.00;;;;;;;;;;5013610;28;20044;-47
2023/06/04 11:32:46;;;;;;;7.20;2.33;;;;;;;;;;5016124;28;20501;-45
2023/06/04 11:35:14;;;;;;;5.88;1.55;;;;;;;;;;5024284;28;20495;-44
2023/06/04 11:37:53;;;;;;;7.35;2.10;;;;;;;;;;5018079;28;20036;-45
2023/06/04 11:40:21;;;;;;;7.28;2.10;;;;;;;;;;5019430;28;20036;-49
2023/06/04 11:42:50;;;;;;;6.70;1.92;;;;;;;;;;5025166;28;20103;-46
2023/06/04 11:45:18;;;;;;;5.47;1.50;;;;;;;;;;5020293;28;20081;-45
2023/06/04 11:47:47;;;;;;;9.18;2.22;;;;;;;;;;5008533;28;20533;-46
2023/06/04 11:50:15;;;;;;;6.25;1.80;;;;;;;;;;5008831;28;20042;-47
2023/06/04 11:52:44;;;;;;;7.30;1.80;;;;;;;;;;5019443;28;20041;-45
2023/06/04 11:55:13;;;;;;;5.65;1.80;;;;;;;;;;5016395;28;20037;-45
2023/06/04 11:57:41;;;;;;;6.90;1.90;;;;;;;;;;5004344;28;20516;-47
2023/06/04 12:00:11;;;;;;;6.88;2.15;;;;;;;;;;5017974;28;20083;-45
2023/06/04 12:02:51;;;;;;;5.20;1.92;;;;;;;;;;5022080;28;20150;-46
2023/06/04 12:05:23;;;;;;;5.50;1.60;;;;;;;;;;5015434;28;20643;-45
2023/06/04 12:07:53;;;;;;;6.70;2.25;;;;;;;;;;5020612;28;20069;-44
2023/06/04 12:10:21;;;;;;;5.97;1.57;;;;;;;;;;5015711;28;20041;-49
2023/06/04 12:12:55;;;;;;;4.75;1.17;;;;;;;;;;5022040;28;20051;-48
2023/06/04 12:15:23;;;;;;;6.32;1.98;;;;;;;;;;5018385;28;20048;-45
2023/06/04 12:17:51;;;;;;;6.22;1.70;;;;;;;;;;5005767;28;20044;-46
2023/06/04 12:20:19;;;;;;;5.32;1.73;;;;;;;;;;5017867;28;20176;-49
2023/06/04 12:22:48;;;;;;;6.30;2.00;;;;;;;;;;5005400;28;20037;-44
2023/06/04 12:25:26;;;;;;;5.10;1.40;;;;;;;;;;5017545;28;20091;-44
2023/06/04 12:27:55;;;;;;;7.40;1.50;;;;;;;;;;5020858;28;20090;-45
2023/06/04 12:30:23;;;;;;;4.50;1.40;;;;;;;;;;5017660;28;20138;-45
2023/06/04 12:32:51;;;;;;;7.07;1.20;;;;;;;;;;5013918;28;20052;-44
2023/06/04 12:35:20;;;;;;;5.13;1.53;;;;;;;;;;5010185;28;20029;-47
2023/06/04 12:37:48;;;;;;;5.82;1.40;;;;;;;;;;5007236;28;20049;-44
2023/06/04 12:40:15;;;;;;;4.32;1.48;;;;;;;;;;5015577;28;20037;-45
2023/06/04 12:42:46;;;;;;;5.65;1.77;;;;;;;;;;5027244;28;20463;-46
2023/06/04 12:45:14;;;;;;;6.95;2.08;;;;;;;;;;5013152;28;20041;-45
2023/06/04 12:47:43;;;;;;;6.57;2.47;;;;;;;;;;5010594;28;20392;-45
2023/06/04 12:50:11;;;;;;;7.40;2.22;;;;;;;;;;5017990;28;20057;-45
2023/06/04 12:52:39;;;;;;;5.05;1.30;;;;;;;;;;5013154;28;20284;-46
2023/06/04 12:55:07;;;;;;;5.65;1.80;;;;;;;;;;5020917;28;20045;-47
2023/06/04 12:57:35;;;;;;;6.47;2.08;;;;;;;;;;5011756;28;20561;-47
2023/06/04 13:00:04;;;;;;;8.13;2.07;;;;;;;;;;5023299;28;20063;-45
2023/06/04 13:02:32;;;;;;;6.22;1.95;;;;;;;;;;4997862;28;20073;-48
2023/06/04 13:05:00;;;;;;;5.78;1.70;;;;;;;;;;5017541;28;20407;-45
2023/06/04 13:07:28;;;;;;;7.45;1.63;;;;;;;;;;5005870;28;20676;-45
2023/06/04 13:09:56;;;;;;;5.78;1.67;;;;;;;;;;5026002;28;20225;-47
2023/06/04 13:12:24;;;;;;;6.07;2.00;;;;;;;;;;5007083;28;20037;-45
2023/06/04 13:14:51;;;;;;;5.82;2.20;;;;;;;;;;5017363;28;20048;-45
2023/06/04 13:17:20;;;;;;;7.13;2.25;;;;;;;;;;5000155;28;20598;-46
2023/06/04 13:19:52;;;;;;;5.30;1.95;;;;;;;;;;5014731;28;20041;-47
2023/06/04 13:22:21;;;;;;;5.75;2.10;;;;;;;;;;5015507;28;20131;-48
2023/06/04 13:24:49;;;;;;;5.83;2.00;;;;;;;;;;5001958;28;20037;-48
2023/06/04 13:27:17;;;;;;;5.72;1.67;;;;;;;;;;5015879;28;20045;-46
2023/06/04 13:29:45;;;;;;;6.72;1.80;;;;;;;;;;5002029;28;20040;-48
2023/06/04 13:32:13;;;;;;;6.10;1.70;;;;;;;;;;5005351;28;20044;-45
2023/06/04 13:34:42;;;;;;;7.75;2.13;;;;;;;;;;5020291;28;20076;-47
2023/06/04 13:37:11;;;;;;;6.73;2.20;;;;;;;;;;5001850;28;20036;-47
2023/06/04 13:39:40;;;;;;;6.05;2.20;;;;;;;;;;5008819;28;20101;-47
2023/06/04 13:42:07;;;;;;;6.40;2.30;;;;;;;;;;5013021;28;21271;-44
2023/06/04 13:44:35;;;;;;;6.28;2.33;;;;;;;;;;5019431;28;20052;-45
2023/06/04 13:47:03;;;;;;;7.90;2.05;;;;;;;;;;5016740;28;20037;-44
2023/06/04 13:49:33;;;;;;;7.90;2.10;;;;;;;;;;5013106;28;20046;-44
2023/06/04 13:52:02;;;;;;;5.35;2.00;;;;;;;;;;5019424;28;20060;-45
2023/06/04 13:54:31;;;;;;;7.13;2.25;;;;;;;;;;4998923;28;20233;-45
2023/06/04 13:57:02;;;;;;;6.57;2.03;;;;;;;;;;5025658;28;20040;-44
2023/06/04 13:59:30;;;;;;;8.85;2.40;;;;;;;;;;5012534;28;20119;-43
2023/06/04 14:01:57;;;;;;;7.63;2.00;;;;;;;;;;5015474;28;20526;-44
2023/06/04 14:04:25;;;;;;;6.80;1.70;;;;;;;;;;5018048;28;20068;-45
2023/06/04 14:06:53;;;;;;;6.90;2.38;;;;;;;;;;5015604;28;20056;-44
2023/06/04 14:09:24;;;;;;;6.45;2.42;;;;;;;;;;5013341;28;20127;-45
2023/06/04 14:11:51;;;;;;;7.65;2.00;;;;;;;;;;5009904;28;20037;-44
2023/06/04 14:14:19;;;;;;;5.57;1.93;;;;;;;;;;5027305;28;20037;-46
2023/06/04 14:16:47;;;;;;;7.00;2.67;;;;;;;;;;5014172;28;20532;-45
2023/06/04 14:19:15;;;;;;;6.10;1.90;;;;;;;;;;5023791;28;20040;-49
2023/06/04 14:21:44;;;;;;;5.25;2.10;;;;;;;;;;4989293;28;20727;-48
2023/06/04 14:24:12;;;;;;;6.13;2.08;;;;;;;;;;5015350;28;20720;-44
2023/06/04 14:26:41;;;;;;;4.90;2.00;;;;;;;;;;5026980;28;20083;-46
2023/06/04 14:29:11;;;;;;;8.32;2.20;;;;;;;;;;5029506;28;20073;-46
2023/06/04 14:31:39;;;;;;;5.57;1.92;;;;;;;;;;5015659;28;20041;-46
2023/06/04 14:34:08;;;;;;;7.20;2.22;;;;;;;;;;5003751;28;20063;-47
2023/06/04 14:36:36;;;;;;;5.72;1.85;;;;;;;;;;4994939;28;20056;-46
2023/06/04 14:39:04;;;;;;;6.90;2.37;;;;;;;;;;5015430;28;20041;-45
2023/06/04 14:41:32;;;;;;;6.22;2.13;;;;;;;;;;5019521;28;20033;-45
2023/06/04 14:44:01;;;;;;;5.28;1.88;;;;;;;;;;5032166;28;20036;-46
2023/06/04 14:46:29;;;;;;;5.10;1.90;;;;;;;;;;5017594;28;20037;-48